Time;durP1;ratioP1;P1;durP2;ratioP2;P2;SDS_P1;SDS_P2;PMS_P1;PMS_P2;Temp;Humidity;BMP_temperature;BMP_pressure;BME280_temperature;BME280_humidity;BME280_pressure;Samples;Min_cycle;Max_cycle;Signal;HPM_P1;HPM_P2
2023/07/15 00:07:21;;;;;;;3.78;2.30;;;;;;;20.79;90.75;100205.28;20260859;29;20465;-65
2023/07/15 00:17:23;;;;;;;2.75;2.33;;;;;;;20.78;90.59;100198.16;20260444;29;20529;-65
2023/07/15 00:27:25;;;;;;;2.38;2.17;;;;;;;20.78;89.72;100173.81;20258591;29;20104;-65
2023/07/15 00:37:28;;;;;;;2.88;1.98;;;;;;;20.77;88.58;100172.13;20257656;29;20123;-65
2023/07/15 00:47:38;;;;;;;2.90;2.28;;;;;;;20.71;88.26;100146.59;20258951;29;20083;-65
2023/07/15 00:57:41;;;;;;;2.63;2.00;;;;;;;20.76;88.07;100147.94;20257418;29;20056;-65
2023/07/15 01:07:43;;;;;;;3.10;2.40;;;;;;;20.74;87.49;100126.47;20257025;29;20539;-65
2023/07/15 01:17:44;;;;;;;2.50;2.15;;;;;;;20.73;86.58;100117.50;20257229;29;20057;-65
2023/07/15 01:27:47;;;;;;;3.78;1.83;;;;;;;20.73;86.55;100117.50;20256448;29;20048;-65
2023/07/15 01:37:48;;;;;;;3.78;2.08;;;;;;;20.71;85.46;100107.91;20255880;29;20506;-65
2023/07/15 01:47:51;;;;;;;3.05;1.90;;;;;;;20.71;85.26;100097.91;20261532;29;20462;-65
2023/07/15 01:57:53;;;;;;;2.20;1.83;;;;;;;20.71;85.25;100095.19;20270806;29;20063;-65
2023/07/15 02:07:55;;;;;;;2.60;1.90;;;;;;;20.72;85.38;100083.38;20253083;29;20104;-65
2023/07/15 02:17:58;;;;;;;2.97;1.98;;;;;;;20.73;85.41;100097.75;20266321;29;20535;-65
2023/07/15 02:28:00;;;;;;;2.47;1.75;;;;;;;20.73;85.33;100076.94;20236420;29;20108;-65
2023/07/15 02:38:02;;;;;;;2.65;2.08;;;;;;;20.73;85.31;100063.41;20253612;29;20546;-65
2023/07/15 02:48:06;;;;;;;2.30;1.50;;;;;;;20.73;84.81;100060.72;20251280;29;20606;-65
2023/07/15 02:58:07;;;;;;;2.05;1.80;;;;;;;20.70;84.60;100050.25;20241456;29;20044;-65
2023/07/15 03:08:09;;;;;;;2.20;1.80;;;;;;;20.73;84.17;100057.19;20233002;29;20053;-65
2023/07/15 03:18:11;;;;;;;3.00;1.90;;;;;;;20.73;84.05;100068.00;20241811;29;20056;-65
2023/07/15 03:28:13;;;;;;;2.75;1.70;;;;;;;20.67;83.71;100068.69;20250676;29;20577;-65
2023/07/15 03:38:17;;;;;;;2.42;1.75;;;;;;;20.71;83.62;100075.44;20250288;29;20569;-65
2023/07/15 03:48:19;;;;;;;1.90;1.60;;;;;;;20.70;83.53;100080.00;20225682;29;20461;-65
2023/07/15 03:58:21;;;;;;;2.40;2.10;;;;;;;20.70;83.19;100088.09;20243877;29;20045;-65
2023/07/15 04:08:23;;;;;;;4.25;2.00;;;;;;;20.69;82.86;100075.59;20232949;29;20114;-65
2023/07/15 04:18:24;;;;;;;2.47;1.73;;;;;;;20.67;82.16;100077.66;20226690;29;20108;-65
2023/07/15 04:28:26;;;;;;;3.88;1.83;;;;;;;20.67;82.01;100079.53;20228912;29;20044;-65
2023/07/15 04:38:28;;;;;;;2.72;1.55;;;;;;;20.66;81.78;100086.78;20207386;29;20052;-65
2023/07/15 04:48:30;;;;;;;1.80;1.60;;;;;;;20.66;80.85;100103.00;20219492;29;20056;-65
2023/07/15 04:58:32;;;;;;;3.25;1.73;;;;;;;20.66;80.66;100103.00;20221571;29;20513;-65
2023/07/15 05:08:33;;;;;;;2.35;1.80;;;;;;;20.65;80.48;100120.25;20211418;29;20100;-65
2023/07/15 05:18:35;;;;;;;2.50;1.45;;;;;;;20.65;79.97;100114.00;20239980;29;20052;-64
2023/07/15 05:28:38;;;;;;;1.63;1.33;;;;;;;20.68;80.29;100127.19;20225115;29;20488;-64
2023/07/15 05:38:43;;;;;;;3.10;1.80;;;;;;;20.68;80.64;100138.00;20248127;29;20103;-65
2023/07/15 05:48:45;;;;;;;2.40;1.70;;;;;;;20.67;80.39;100139.84;20230398;29;20088;-65
2023/07/15 05:58:50;;;;;;;;;;;;;;;20.68;81.24;100152.34;20243946;29;20525;-65
2023/07/15 06:08:52;;;;;;;4.70;1.90;;;;;;;20.68;80.79;100140.69;20243435;29;19967;-65
2023/07/15 06:18:53;;;;;;;2.17;1.88;;;;;;;20.69;80.15;100145.94;20240976;29;20131;-64
2023/07/15 06:28:55;;;;;;;2.85;1.88;;;;;;;20.71;80.57;100140.34;20249407;29;20127;-65
2023/07/15 06:38:57;;;;;;;5.30;2.20;;;;;;;20.71;81.64;100151.19;20236262;29;20057;-65
2023/07/15 06:48:58;;;;;;;3.30;1.83;;;;;;;20.70;82.29;100150.31;20235913;29;20064;-64
2023/07/15 06:59:00;;;;;;;4.10;2.05;;;;;;;20.77;83.43;100149.63;20255122;29;20135;-64
2023/07/15 07:09:02;;;;;;;3.08;1.70;;;;;;;20.81;83.81;100145.59;20227632;29;20104;-64
2023/07/15 07:19:03;;;;;;;4.13;1.80;;;;;;;20.84;83.66;100156.06;20221988;29;20059;-65
2023/07/15 07:29:05;;;;;;;3.67;2.05;;;;;;;20.88;85.63;100140.31;20234936;29;20080;-64
2023/07/15 07:39:07;;;;;;;3.25;1.67;;;;;;;20.93;87.43;100157.72;20224388;29;20143;-64
2023/07/15 07:49:08;;;;;;;2.20;1.60;;;;;;;20.92;85.91;100164.16;20196865;29;20044;-67
2023/07/15 07:59:10;;;;;;;2.72;1.65;;;;;;;20.92;87.09;100176.84;20195102;29;20057;-67
2023/07/15 08:09:12;;;;;;;2.90;1.38;;;;;;;20.98;87.60;100190.53;20181921;29;20278;-67
2023/07/15 08:19:13;;;;;;;2.80;1.60;;;;;;;21.12;87.72;100188.09;20185619;29;20049;-67
2023/07/15 08:29:16;;;;;;;1.38;1.17;;;;;;;21.25;88.44;100196.50;20203599;29;20055;-67
2023/07/15 08:39:18;;;;;;;2.33;1.48;;;;;;;21.42;88.69;100191.00;20239785;29;20453;-67
2023/07/15 08:49:20;;;;;;;1.80;1.30;;;;;;;21.54;87.80;100191.47;20232635;29;20140;-67
2023/07/15 08:59:22;;;;;;;2.13;1.50;;;;;;;21.57;88.50;100183.81;20258552;29;20128;-67
2023/07/15 09:09:34;;;;;;;1.55;1.10;;;;;;;21.58;89.34;100196.34;20252337;29;20045;-67
2023/07/15 09:19:36;;;;;;;1.95;1.42;;;;;;;21.54;89.63;100200.41;20256768;29;20044;-67
2023/07/15 09:29:39;;;;;;;1.70;1.37;;;;;;;21.51;89.72;100195.34;20238065;29;20078;-67
2023/07/15 09:39:41;;;;;;;1.50;1.30;;;;;;;21.54;90.05;100211.25;20258724;29;20065;-67
2023/07/15 09:49:42;;;;;;;1.67;1.00;;;;;;;21.55;90.16;100220.22;20240042;29;20421;-67
2023/07/15 09:59:48;;;;;;;1.35;1.25;;;;;;;21.55;90.15;100222.94;20249335;29;20128;-67
2023/07/15 10:09:50;;;;;;;2.33;1.60;;;;;;;21.52;90.11;100224.13;20252564;29;20052;-67
2023/07/15 10:19:52;;;;;;;1.88;1.10;;;;;;;21.54;90.59;100230.22;20252998;29;20556;-67
2023/07/15 10:30:14;;;;;;;1.23;1.10;;;;;;;21.51;91.06;100238.69;20250973;29;20045;-67
2023/07/15 10:40:50;;;;;;;2.28;0.93;;;;;;;21.49;90.83;100240.72;20243136;29;20055;-67
2023/07/15 10:50:53;;;;;;;1.77;1.10;;;;;;;21.46;90.65;100235.66;20240800;29;20052;-67
2023/07/15 11:01:06;;;;;;;1.38;0.93;;;;;;;21.47;91.45;100226.53;20243969;29;20048;-67
2023/07/15 11:11:10;;;;;;;1.15;0.90;;;;;;;21.48;91.94;100236.34;20240408;29;20079;-67
2023/07/15 11:21:12;;;;;;;1.25;0.95;;;;;;;21.47;91.91;100226.53;20249792;29;20600;-67
2023/07/15 11:31:13;;;;;;;2.00;0.90;;;;;;;21.44;91.76;100235.88;20229116;29;20080;-67
2023/07/15 11:41:15;;;;;;;3.72;1.17;;;;;;;21.44;93.60;100210.63;20232770;29;20049;-67
2023/07/15 11:51:19;;;;;;;2.47;1.00;;;;;;;21.43;94.04;100217.94;20231798;29;20059;-67
2023/07/15 12:01:24;;;;;;;;;;;;;;;21.42;94.13;100204.56;20226069;29;20478;-66
2023/07/15 12:11:26;;;;;;;1.27;1.13;;;;;;;21.40;94.79;100202.00;20241845;29;19955;-67
2023/07/15 12:21:29;;;;;;;1.52;1.20;;;;;;;21.42;94.59;100199.97;20211955;29;20052;-67
2023/07/15 12:31:30;;;;;;;1.77;1.10;;;;;;;21.47;95.21;100187.78;20219776;29;20421;-68
2023/07/15 12:41:32;;;;;;;1.23;0.98;;;;;;;21.52;95.66;100180.78;20209824;29;20532;-68
2023/07/15 12:51:34;;;;;;;1.15;1.00;;;;;;;21.54;95.42;100167.91;20203805;29;20041;-68
2023/07/15 13:01:35;;;;;;;1.73;1.17;;;;;;;21.54;93.98;100161.69;20201556;29;20478;-68
2023/07/15 13:11:38;;;;;;;1.48;1.20;;;;;;;21.53;92.47;100155.41;20216582;29;20504;-68
2023/07/15 13:21:39;;;;;;;1.63;1.08;;;;;;;21.54;93.16;100146.25;20218168;29;20048;-68
2023/07/15 13:31:41;;;;;;;3.75;1.02;;;;;;;21.52;92.49;100137.47;20228509;29;20116;-68
2023/07/15 13:41:43;;;;;;;1.85;1.02;;;;;;;21.55;94.14;100142.53;20225932;29;20049;-67
2023/07/15 13:51:45;;;;;;;2.33;1.08;;;;;;;21.58;94.60;100131.31;20226815;29;20052;-68
2023/07/15 14:01:47;;;;;;;2.05;1.10;;;;;;;21.59;90.86;100113.22;20239691;29;20060;-70
2023/07/15 14:11:48;;;;;;;2.10;1.30;;;;;;;21.71;89.25;100125.34;20208683;29;20045;-73
2023/07/15 14:21:51;;;;;;;3.33;1.25;;;;;;;21.77;88.75;100128.34;20219627;29;20048;-71
2023/07/15 14:32:10;;;;;;;1.42;1.25;;;;;;;21.87;88.89;100118.97;20212593;29;20049;-70
2023/07/15 14:42:12;;;;;;;1.70;1.13;;;;;;;21.91;88.33;100096.91;20205315;29;20057;-70
2023/07/15 14:52:13;;;;;;;6.07;2.45;;;;;;;21.99;89.64;100080.59;20197115;29;20051;-68
2023/07/15 15:02:15;;;;;;;21.02;9.05;;;;;;;22.02;93.73;100066.66;20213823;29;20497;-67
2023/07/15 15:12:17;;;;;;;15.43;7.43;;;;;;;22.06;94.89;100040.88;20208666;29;20053;-70
2023/07/15 15:22:18;;;;;;;13.57;6.32;;;;;;;22.12;94.12;100039.31;20211604;29;20390;-70
2023/07/15 15:32:20;;;;;;;10.13;4.90;;;;;;;22.15;94.35;100045.22;20229209;29;20461;-70
2023/07/15 15:42:22;;;;;;;11.13;5.05;;;;;;;22.16;95.10;100036.06;20214943;29;20052;-68
2023/07/15 15:52:24;;;;;;;13.82;4.97;;;;;;;22.08;94.94;100022.56;20188040;29;20083;-69
2023/07/15 16:02:25;;;;;;;13.77;5.22;;;;;;;22.02;92.73;100012.47;20246270;29;20474;-72
2023/07/15 16:12:27;;;;;;;8.93;3.97;;;;;;;21.94;94.86;100021.53;20235184;29;20127;-74
2023/07/15 16:22:29;;;;;;;12.82;4.32;;;;;;;21.88;94.17;100016.84;20210706;29;20049;-67
2023/07/15 16:32:30;;;;;;;8.48;3.63;;;;;;;21.75;97.36;100009.34;20221253;29;20420;-65
2023/07/15 16:42:32;;;;;;;6.15;2.63;;;;;;;21.68;99.75;100003.00;20232868;29;20056;-64
2023/07/15 16:52:34;;;;;;;4.30;2.05;;;;;;;21.62;100.00;99992.84;20238214;29;20580;-65
2023/07/15 17:02:36;;;;;;;5.47;2.47;;;;;;;21.53;100.00;100106.66;20217821;29;20088;-65
2023/07/15 17:12:38;;;;;;;5.47;2.50;;;;;;;21.59;100.00;100176.34;20236615;29;20462;-65
2023/07/15 17:22:39;;;;;;;3.83;2.35;;;;;;;21.61;100.00;100186.16;20247739;29;20123;-65
2023/07/15 17:32:41;;;;;;;5.45;1.90;;;;;;;21.58;100.00;100207.16;20268590;29;20152;-65
2023/07/15 17:42:43;;;;;;;4.03;2.50;;;;;;;21.59;100.00;100230.53;20198213;29;20552;-65
2023/07/15 17:52:45;;;;;;;4.63;2.30;;;;;;;21.58;100.00;100238.84;20263974;29;20041;-65
2023/07/15 18:02:48;;;;;;;2.97;1.83;;;;;;;21.57;100.00;100247.97;20259747;29;20060;-65
2023/07/15 18:12:51;;;;;;;4.65;2.25;;;;;;;21.54;100.00;100224.78;20249250;29;20059;-65
2023/07/15 18:22:52;;;;;;;2.60;1.70;;;;;;;21.52;100.00;100196.22;20230889;29;20066;-65
2023/07/15 18:32:54;;;;;;;5.28;2.33;;;;;;;21.49;100.00;100219.06;20242063;29;20044;-65
2023/07/15 18:42:56;;;;;;;2.50;1.83;;;;;;;21.48;100.00;100206.53;20249863;29;20519;-65
2023/07/15 18:52:57;;;;;;;2.60;1.92;;;;;;;21.47;100.00;100223.81;20226810;29;20119;-65
2023/07/15 19:02:59;;;;;;;3.88;1.77;;;;;;;21.47;100.00;100226.53;20246275;29;20131;-65
2023/07/15 19:13:01;;;;;;;3.15;1.65;;;;;;;21.45;100.00;100233.97;20242082;29;20055;-65
2023/07/15 19:23:03;;;;;;;2.90;1.80;;;;;;;21.44;100.00;100278.31;20237717;29;20417;-65
2023/07/15 19:33:04;;;;;;;2.78;1.70;;;;;;;21.43;100.00;100273.94;20263356;29;20053;-65
2023/07/15 19:43:06;;;;;;;4.28;2.20;;;;;;;21.41;100.00;100292.22;20259409;29;20056;-65
2023/07/15 19:53:08;;;;;;;2.03;1.30;;;;;;;21.39;100.00;100288.84;20238344;29;20140;-65
2023/07/15 20:03:09;;;;;;;1.88;1.30;;;;;;;21.37;100.00;100270.06;20240915;29;20095;-65
2023/07/15 20:13:12;;;;;;;1.38;1.17;;;;;;;21.36;100.00;100298.16;20243000;29;20094;-65
2023/07/15 20:23:16;;;;;;;1.70;1.20;;;;;;;21.33;100.00;100303.91;20224803;29;20053;-65
2023/07/15 20:33:18;;;;;;;2.88;1.45;;;;;;;21.31;100.00;100308.66;20237458;29;20120;-65
2023/07/15 20:43:20;;;;;;;2.40;1.20;;;;;;;21.29;100.00;100316.97;20233246;29;20104;-65
2023/07/15 20:53:21;;;;;;;1.42;1.05;;;;;;;21.29;100.00;100337.75;20239884;29;20141;-65
2023/07/15 21:03:23;;;;;;;1.45;1.08;;;;;;;21.26;100.00;100355.22;20251324;29;20053;-65
2023/07/15 21:13:25;;;;;;;2.40;0.90;;;;;;;21.25;100.00;100347.25;20244774;29;20476;-65
2023/07/15 21:23:27;;;;;;;1.27;0.90;;;;;;;21.21;100.00;100335.94;20247748;29;20605;-65
2023/07/15 21:33:29;;;;;;;1.17;0.88;;;;;;;21.23;100.00;100336.63;20253333;29;20498;-65
2023/07/15 21:43:30;;;;;;;1.83;1.08;;;;;;;21.22;100.00;100334.06;20249224;29;20051;-65
2023/07/15 21:53:32;;;;;;;1.20;1.00;;;;;;;21.20;100.00;100334.22;20249562;29;20053;-65
2023/07/15 22:03:33;;;;;;;1.52;1.17;;;;;;;21.20;100.00;100361.28;20236389;29;20037;-65
2023/07/15 22:13:35;;;;;;;1.60;1.02;;;;;;;21.19;100.00;100375.00;20246648;29;20048;-65
2023/07/15 22:23:37;;;;;;;1.98;1.00;;;;;;;21.17;100.00;100410.34;20235693;29;20714;-65
2023/07/15 22:33:38;;;;;;;1.98;1.05;;;;;;;21.15;100.00;100434.03;20253080;29;20108;-65
2023/07/15 22:43:40;;;;;;;1.23;0.90;;;;;;;21.14;100.00;100426.94;20245781;29;20100;-65
2023/07/15 22:53:42;;;;;;;1.77;1.15;;;;;;;21.12;100.00;100442.50;20239298;29;20112;-65
2023/07/15 23:03:43;;;;;;;1.52;1.42;;;;;;;21.12;100.00;100466.88;20246348;29;20104;-65
2023/07/15 23:13:45;;;;;;;2.05;1.20;;;;;;;21.03;100.00;100457.06;20231624;29;20053;-65
2023/07/15 23:23:47;;;;;;;1.40;0.98;;;;;;;21.08;100.00;100460.97;20240204;29;20056;-65
2023/07/15 23:33:49;;;;;;;1.98;1.48;;;;;;;21.07;100.00;100450.28;20244818;29;20053;-65
2023/07/15 23:43:50;;;;;;;2.15;1.30;;;;;;;21.05;100.00;100449.63;20245642;29;20124;-65
2023/07/15 23:53:54;;;;;;;2.40;1.33;;;;;;;21.02;100.00;100453.53;20244418;29;20062;-65
